| time (UTC) | temp F | wind direction | speed MPH | gust MPH | rain 1hr in | rain 24hr in | rain mn in | humidity % | barometer mb |
| 20260503003055 | 63 | 151 | 0.0 | 3.0 | 0.00 | 0.00 | 0.00 | 36 | 1011.7 |
| 20260503001609 | 63 | 245 | 1.0 | 4.0 | 0.00 | 0.00 | 0.00 | 36 | 1011.8 |
| 20260503000126 | 63 | 0 | 0.0 | 1.0 | 0.00 | 0.00 | 0.00 | 37 | 1012.0 |
| 20260502234602 | 63 | 283 | 0.0 | 5.0 | 0.00 | 0.00 | 0.00 | 35 | 1012.1 |
| 20260502233053 | 63 | 0 | 0.0 | 7.0 | 0.00 | 0.00 | 0.00 | 35 | 1012.3 |
| 20260502231553 | 63 | 246 | 1.0 | 9.0 | 0.00 | 0.00 | 0.00 | 33 | 1012.2 |
| 20260502230052 | 64 | 256 | 5.0 | 14.0 | 0.00 | 0.00 | 0.00 | 33 | 1012.5 |
| 20260502224555 | 64 | 122 | 5.0 | 9.0 | 0.00 | 0.00 | 0.00 | 33 | 1012.7 |
| 20260502223052 | 64 | 253 | 3.0 | 10.0 | 0.00 | 0.00 | 0.00 | 34 | 1012.9 |
| 20260502221607 | 64 | 262 | 9.0 | 15.0 | 0.00 | 0.00 | 0.00 | 31 | 1013.1 |
| 20260502220100 | 64 | 266 | 8.0 | 15.0 | 0.00 | 0.00 | 0.00 | 33 | 1013.1 |
| 20260502214556 | 64 | 254 | 8.0 | 19.0 | 0.00 | 0.00 | 0.00 | 32 | 1013.4 |
| 20260502213056 | 64 | 259 | 5.0 | 14.0 | 0.00 | 0.00 | 0.00 | 33 | 1013.6 |
| 20260502211555 | 64 | 309 | 9.0 | 19.0 | 0.00 | 0.00 | 0.00 | 31 | 1014.0 |
| 20260502210107 | 64 | 250 | 4.0 | 14.0 | 0.00 | 0.00 | 0.00 | 31 | 1014.0 |
| 20260502204554 | 63 | 238 | 7.0 | 16.0 | 0.00 | 0.00 | 0.00 | 33 | 1014.3 |
| 20260502203054 | 62 | 276 | 10.0 | 18.0 | 0.00 | 0.00 | 0.00 | 33 | 1014.6 |
| 20260502201554 | 62 | 195 | 6.0 | 19.0 | 0.00 | 0.00 | 0.00 | 32 | 1014.9 |
| 20260502200115 | 61 | 257 | 9.0 | 15.0 | 0.00 | 0.00 | 0.00 | 36 | 1015.0 |
| 20260502194549 | 60 | 113 | 8.0 | 17.0 | 0.00 | 0.00 | 0.00 | 33 | 1015.3 |
| 20260502193054 | 61 | 261 | 5.0 | 16.0 | 0.00 | 0.00 | 0.00 | 34 | 1015.6 |
| 20260502191601 | 60 | 285 | 6.0 | 14.0 | 0.00 | 0.00 | 0.00 | 38 | 1015.7 |
| 20260502190058 | 59 | 262 | 4.0 | 18.0 | 0.00 | 0.00 | 0.00 | 36 | 1016.0 |
| 20260502184555 | 59 | 257 | 3.0 | 13.0 | 0.00 | 0.00 | 0.00 | 35 | 1016.2 |
| 20260502183053 | 58 | 314 | 8.0 | 19.0 | 0.00 | 0.00 | 0.00 | 34 | 1016.5 |
| 20260502181549 | 58 | 251 | 8.0 | 22.0 | 0.00 | 0.00 | 0.00 | 40 | 1016.9 |
| 20260502163058 | 55 | 315 | 9.0 | 17.0 | 0.00 | 0.00 | 0.00 | 38 | 1018.1 |
| 20260502161604 | 55 | 313 | 3.0 | 16.0 | 0.00 | 0.00 | 0.00 | 38 | 1018.3 |
| 20260502151607 | 53 | 314 | 5.0 | 13.0 | 0.00 | 0.00 | 0.00 | 44 | 1018.9 |
| 20260502130103 | 42 | 290 | 0.0 | 1.0 | 0.00 | 0.00 | 0.00 | 66 | 1019.3 |
| 20260502123052 | 39 | 0 | 0.0 | 0.0 | 0.00 | 0.00 | 0.00 | 75 | 1019.5 |
| 20260502121550 | 36 | 0 | 0.0 | 0.0 | 0.00 | 0.00 | 0.00 | 80 | 1019.2 |
| 20260502114552 | 31 | 0 | 0.0 | 0.0 | 0.00 | 0.00 | 0.00 | 88 | 1019.1 |
| 20260502113055 | 30 | 0 | 0.0 | 0.0 | 0.00 | 0.00 | 0.00 | 89 | 1019.1 |
| 20260502111555 | 29 | 0 | 0.0 | 0.0 | 0.00 | 0.00 | 0.00 | 90 | 1019.0 |
| 20260502110059 | 29 | 0 | 0.0 | 0.0 | 0.00 | 0.00 | 0.00 | 90 | 1019.0 |
| 20260502104548 | 29 | 0 | 0.0 | 0.0 | 0.00 | 0.00 | 0.00 | 89 | 1018.9 |
| 20260502103055 | 29 | 0 | 0.0 | 0.0 | 0.00 | 0.00 | 0.00 | 89 | 1018.9 |
| 20260502101603 | 29 | 0 | 0.0 | 0.0 | 0.00 | 0.00 | 0.00 | 89 | 1018.9 |
| 20260502090114 | 30 | 0 | 0.0 | 0.0 | 0.00 | 0.00 | 0.00 | 87 | 1018.9 |
| 20260502070106 | 34 | 0 | 0.0 | 0.0 | 0.00 | 0.00 | 0.00 | 77 | 1019.2 |
| 20260502064608 | 34 | 0 | 0.0 | 0.0 | 0.00 | 0.00 | 0.00 | 79 | 1019.4 |
| 20260502063054 | 34 | 0 | 0.0 | 0.0 | 0.00 | 0.00 | 0.00 | 79 | 1019.4 |
| 20260502061554 | 35 | 0 | 0.0 | 0.0 | 0.00 | 0.00 | 0.00 | 76 | 1019.5 |
| 20260502060055 | 36 | 0 | 0.0 | 0.0 | 0.00 | 0.00 | 0.00 | 74 | 1019.5 |
| 20260502054557 | 36 | 0 | 0.0 | 0.0 | 0.00 | 0.00 | 0.00 | 74 | 1019.5 |
| 20260502053055 | 36 | 0 | 0.0 | 0.0 | 0.00 | 0.00 | 0.00 | 75 | 1019.5 |
| 20260502051554 | 36 | 0 | 0.0 | 0.0 | 0.00 | 0.00 | 0.00 | 75 | 1019.5 |
| 20260502050055 | 36 | 0 | 0.0 | 0.0 | 0.00 | 0.00 | 0.00 | 78 | 1019.5 |
| 20260502044552 | 36 | 0 | 0.0 | 0.0 | 0.00 | 0.00 | 0.00 | 76 | 1019.4 |
| 20260502043052 | 36 | 0 | 0.0 | 0.0 | 0.00 | 0.00 | 0.00 | 74 | 1019.3 |
| 20260502041558 | 36 | 0 | 0.0 | 0.0 | 0.00 | 0.00 | 0.00 | 72 | 1019.4 |
| 20260502040056 | 37 | 0 | 0.0 | 0.0 | 0.00 | 0.00 | 0.00 | 71 | 1019.4 |
| 20260502034553 | 37 | 0 | 0.0 | 0.0 | 0.00 | 0.00 | 0.00 | 69 | 1019.4 |
| 20260502033057 | 38 | 0 | 0.0 | 0.0 | 0.00 | 0.00 | 0.00 | 69 | 1019.4 |
| 20260502031557 | 39 | 0 | 0.0 | 0.0 | 0.00 | 0.00 | 0.00 | 65 | 1019.5 |
| 20260502030056 | 40 | 0 | 0.0 | 0.0 | 0.00 | 0.00 | 0.00 | 60 | 1019.5 |
| 20260502024607 | 40 | 0 | 0.0 | 0.0 | 0.00 | 0.00 | 0.00 | 62 | 1019.3 |
| 20260502023112 | 40 | 0 | 0.0 | 0.0 | 0.00 | 0.00 | 0.00 | 66 | 1019.4 |
| 20260502021557 | 42 | 0 | 0.0 | 0.0 | 0.00 | 0.00 | 0.00 | 61 | 1019.3 |
| 20260502020055 | 43 | 0 | 0.0 | 0.0 | 0.00 | 0.00 | 0.00 | 53 | 1019.2 |
| 20260502014554 | 45 | 0 | 0.0 | 0.0 | 0.00 | 0.00 | 0.00 | 52 | 1019.1 |
| 20260502013057 | 46 | 0 | 0.0 | 0.0 | 0.00 | 0.00 | 0.00 | 47 | 1018.8 |
| 20260502011550 | 49 | 0 | 0.0 | 0.0 | 0.00 | 0.00 | 0.00 | 42 | 1019.0 |
| 20260502010053 | 50 | 0 | 0.0 | 0.0 | 0.00 | 0.00 | 0.00 | 35 | 1018.8 |
| 20260502004556 | 52 | 0 | 0.0 | 6.0 | 0.00 | 0.00 | 0.00 | 34 | 1018.7 |